Aviation Digital Data Service (ADDS)

Output produced by METARs form (0629 UTC 03 August 2021)
found at http://www.aviationweather.gov/metar/data/
 
KBFD 030553Z AUTO 00000KT 10SM CLR 09/07 A3017 RMK AO2 SLP210 T00890067 10183 20078 50002
KBFD 030453Z AUTO 00000KT 9SM CLR 08/06 A3017 RMK AO2 SLP212 T00830061 402220083
KBFD 030353Z AUTO 00000KT 10SM CLR 10/08 A3016 RMK AO2 SLP209 T01000078
KBFD 030253Z AUTO 00000KT 10SM CLR 10/08 A3016 RMK AO2 SLP207 T01000078 51009
KBFD 030153Z AUTO 00000KT 10SM CLR 12/08 A3015 RMK AO2 SLP204 T01220083
KBFD 030053Z AUTO 00000KT 10SM CLR 14/09 A3014 RMK AO2 SLP201 T01440089
KBFD 022353Z AUTO 30005KT 10SM CLR 18/07 A3013 RMK AO2 SLP195 T01830072 10222 20183 53006
KBFD 022253Z AUTO 34007KT 10SM CLR 21/08 A3012 RMK AO2 SLP190 T02060078
KBFD 022153Z AUTO 31011KT 10SM CLR 21/07 A3011 RMK AO2 SLP188 T02110067
KBFD 022053Z AUTO 31006KT 10SM SCT055 SCT065 20/07 A3011 RMK AO2 SLP189 T02000072 55003
KBFD 021953Z AUTO 31011G17KT 10SM FEW055 22/08 A3011 RMK AO2 SLP185 T02170078
KBFD 021853Z AUTO 33011KT 10SM FEW048 BKN065 19/08 A3012 RMK AO2 SLP191 T01940078
KBFD 021753Z AUTO 35008KT 10SM SCT049 OVC065 21/08 A3012 RMK AO2 SLP192 T02060083 10222 20144 58002
KBFD 021653Z AUTO 32010KT 10SM BKN055 BKN065 20/08 A3013 RMK AO2 SLP196 T02000078
KBFD 021553Z AUTO 32012KT 10SM SCT048 19/07 A3013 RMK AO2 SLP198 T01940072
KBFD 021453Z AUTO 32010G15KT 10SM FEW034 19/09 A3013 RMK AO2 SLP195 T01890089 52014
KBFD 021353Z AUTO 32009KT 10SM CLR 18/09 A3011 RMK AO2 SLP190 T01780094
KBFD 021253Z AUTO 33009KT 10SM CLR 16/11 A3010 RMK AO2 SLP186 T01610111
KBFD 021153Z AUTO 31008KT 10SM SCT007 14/11 A3009 RMK AO2 SLP180 70032 T01440111 10144 20117 53020
KBFD 021146Z AUTO 31005KT 10SM SCT007 14/11 A3008 RMK AO2 T01390111
KBFD 021053Z AUTO 32005KT 10SM BKN008 OVC011 13/11 A3006 RMK AO2 CIG 007V010 SLP172 T01280106
KBFD 021034Z AUTO 32005KT 10SM OVC009 13/11 A3006 RMK AO2 CIG 008V013 T01280106
KBFD 020953Z AUTO 33005KT 10SM SCT011 BKN014 13/11 A3004 RMK AO2 SLP166 T01280106
KBFD 020946Z AUTO 33007KT 10SM BKN011 13/11 A3004 RMK AO2 T01280106
KBFD 020932Z AUTO 31005KT 10SM BKN009 BKN013 BKN038 12/11 A3004 RMK AO2 CIG 006V012 T01220106
KBFD 020921Z AUTO 31005KT 10SM BKN012 BKN019 BKN038 13/11 A3003 RMK AO2 T01280106
KBFD 020853Z AUTO 30004KT 10SM CLR 12/10 A3002 RMK AO2 SLP160 T01170100 53010
KBFD 020832Z AUTO 33003KT 10SM FEW010 SCT015 SCT020 13/11 A3002 RMK AO2 T01280106
KBFD 020817Z AUTO 32006KT 10SM BKN010 BKN014 OVC021 13/11 A3002 RMK AO2 CIG 007V011 T01330111
KBFD 020753Z AUTO 34006KT 10SM OVC009 13/11 A3001 RMK AO2 CIG 007V011 SLP157 T01330111
KBFD 020724Z AUTO 32006KT 10SM BKN007 OVC013 13/11 A3000 RMK AO2 CIG 004V010 T01330111
KBFD 020653Z AUTO 32007KT 9SM OVC004 13/11 A3000 RMK AO2 SLP152 T01280111
KBFD 020632Z AUTO 30007KT 8SM OVC005 13/11 A3000 RMK AO2 T01330111
KBFD 020553Z AUTO 29004KT 8SM OVC003 13/11 A2999 RMK AO2 SLP149 T01280106 10172 20106 51006
KBFD 020542Z AUTO 31005KT 9SM BKN004 12/11 A2999 RMK AO2 T01220106
KBFD 020533Z AUTO 31006KT 9SM SCT004 12/10 A2999 RMK AO2 T01220100
KBFD 020453Z AUTO 29004KT 10SM CLR 11/08 A2998 RMK AO2 SLP146 T01060083 402220100
KBFD 020353Z AUTO 00000KT 10SM CLR 12/09 A2998 RMK AO2 SLP143 T01170089
KBFD 020342Z AUTO 29003KT 10SM FEW013 SCT027 13/09 A2998 RMK AO2 T01280094
KBFD 020327Z AUTO 24003KT 10SM SCT013 BKN027 14/09 A2998 RMK AO2 T01390094
KBFD 020319Z AUTO 28003KT 10SM BKN014 BKN027 13/09 A2998 RMK AO2 T01280094
KBFD 020253Z AUTO 00000KT 10SM FEW017 13/09 A2997 RMK AO2 SLP138 T01330094 51015
KBFD 020153Z AUTO 32007KT 10SM FEW100 14/09 A2996 RMK AO2 SLP134 T01440094
KBFD 020053Z AUTO 32006KT 10SM CLR 15/11 A2994 RMK AO2 SLP131 T01500106
KBFD 012353Z AUTO 30007KT 10SM CLR 17/11 A2992 RMK AO2 SLP124 60014 T01720111 10200 20156 53012
KBFD 012253Z AUTO 29008KT 10SM FEW029 19/12 A2990 RMK AO2 SLP115 T01940117
KBFD 012153Z AUTO 32009KT 10SM CLR 19/12 A2990 RMK AO2 SLP115 T01940122
KBFD 012053Z AUTO 28005KT 10SM CLR 19/13 A2989 RMK AO2 RAE1957 SLP111 P0000 60014 T01890133 58002
KBFD 011953Z AUTO 26004KT 10SM -RA SCT006 BKN049 BKN070 17/14 A2989 RMK AO2 LTG DSNT E SLP118 P0002 T01670139
KBFD 011939Z AUTO 28005KT 10SM -RA FEW006 SCT048 OVC090 17/14 A2988 RMK AO2 P0002 T01670139
KBFD 011901Z AUTO 33009KT 4SM -RA BR FEW013 BKN060 OVC085 16/14 A2989 RMK AO2 LTG DSNT E-S PRESFR P0001 T01610139
KBFD 011853Z AUTO 33006KT 2 1/2SM -RA FEW013 BKN060 OVC070 16/13 A2991 RMK AO2 LTG DSNT E-SW TSB1759E16 SLP123 P0012 T01610133
KBFD 011844Z AUTO VRB03KT 2 1/2SM -RA FEW013 BKN050 OVC085 16/13 A2991 RMK AO2 LTG DSNT E-SW TSB1759E16 P0010 T01610133
KBFD 030524Z 0306/0406 00000KT P6SM SKC 
     FM032000 18003KT P6SM SCT100 
     FM040300 00000KT P6SM BKN060